sensor_id;sensor_type;location;lat;lon;timestamp;P1;durP1;ratioP1;P2;durP2;ratioP2
67429;SDS011;54298;52.076;5.264;2023-03-01T00:01:09;14.2;;;9.31;;
67429;SDS011;54298;52.076;5.264;2023-03-01T00:04:25;12.4;;;9.1;;
67429;SDS011;54298;52.076;5.264;2023-03-01T00:06:03;13.8;;;10.21;;
67429;SDS011;54298;52.076;5.264;2023-03-01T00:07:40;12.7;;;8.81;;
67429;SDS011;54298;52.076;5.264;2023-03-01T00:11:01;12.3;;;9.9;;
67429;SDS011;54298;52.076;5.264;2023-03-01T00:12:39;14.3;;;10.0;;
67429;SDS011;54298;52.076;5.264;2023-03-01T00:14:15;11.6;;;9.31;;
67429;SDS011;54298;52.076;5.264;2023-03-01T00:15:51;14.6;;;10.4;;
67429;SDS011;54298;52.076;5.264;2023-03-01T00:19:04;12.6;;;9.0;;
67429;SDS011;54298;52.076;5.264;2023-03-01T00:20:41;12.4;;;8.4;;
67429;SDS011;54298;52.076;5.264;2023-03-01T00:22:17;11.9;;;9.0;;
67429;SDS011;54298;52.076;5.264;2023-03-01T00:25:30;12.7;;;9.5;;
67429;SDS011;54298;52.076;5.264;2023-03-01T00:27:07;13.6;;;9.6;;
67429;SDS011;54298;52.076;5.264;2023-03-01T00:28:43;16.8;;;9.9;;
67429;SDS011;54298;52.076;5.264;2023-03-01T00:30:20;16.3;;;11.7;;
67429;SDS011;54298;52.076;5.264;2023-03-01T00:33:32;14.5;;;10.0;;
67429;SDS011;54298;52.076;5.264;2023-03-01T00:35:09;15.4;;;10.9;;
67429;SDS011;54298;52.076;5.264;2023-03-01T00:36:45;13.8;;;11.0;;
67429;SDS011;54298;52.076;5.264;2023-03-01T00:39:58;14.0;;;9.71;;
67429;SDS011;54298;52.076;5.264;2023-03-01T00:41:34;16.2;;;12.5;;
67429;SDS011;54298;52.076;5.264;2023-03-01T00:43:10;14.9;;;11.3;;
67429;SDS011;54298;52.076;5.264;2023-03-01T00:46:23;17.11;;;12.2;;
67429;SDS011;54298;52.076;5.264;2023-03-01T00:48:02;17.3;;;11.5;;
67429;SDS011;54298;52.076;5.264;2023-03-01T00:49:38;14.4;;;10.21;;
67429;SDS011;54298;52.076;5.264;2023-03-01T00:51:14;12.2;;;9.31;;
67429;SDS011;54298;52.076;5.264;2023-03-01T00:54:30;13.4;;;10.1;;
67429;SDS011;54298;52.076;5.264;2023-03-01T00:56:08;17.3;;;11.8;;
67429;SDS011;54298;52.076;5.264;2023-03-01T00:57:45;17.0;;;11.2;;
67429;SDS011;54298;52.076;5.264;2023-03-01T01:00:58;17.0;;;11.9;;
67429;SDS011;54298;52.076;5.264;2023-03-01T01:02:34;17.3;;;12.4;;
67429;SDS011;54298;52.076;5.264;2023-03-01T01:04:12;17.61;;;12.2;;
67429;SDS011;54298;52.076;5.264;2023-03-01T01:05:49;15.6;;;12.3;;
67429;SDS011;54298;52.076;5.264;2023-03-01T01:09:02;17.61;;;12.4;;
67429;SDS011;54298;52.076;5.264;2023-03-01T01:10:42;17.61;;;12.5;;
67429;SDS011;54298;52.076;5.264;2023-03-01T01:12:19;17.5;;;12.4;;
67429;SDS011;54298;52.076;5.264;2023-03-01T01:15:33;17.5;;;11.9;;
67429;SDS011;54298;52.076;5.264;2023-03-01T01:17:10;18.11;;;13.2;;
67429;SDS011;54298;52.076;5.264;2023-03-01T01:18:46;18.11;;;13.8;;
67429;SDS011;54298;52.076;5.264;2023-03-01T01:21:58;15.9;;;11.4;;
67429;SDS011;54298;52.076;5.264;2023-03-01T01:23:34;18.11;;;13.1;;
67429;SDS011;54298;52.076;5.264;2023-03-01T01:25:11;20.3;;;15.3;;
67429;SDS011;54298;52.076;5.264;2023-03-01T01:26:48;22.5;;;15.3;;
67429;SDS011;54298;52.076;5.264;2023-03-01T01:30:01;21.5;;;16.0;;
67429;SDS011;54298;52.076;5.264;2023-03-01T01:31:38;21.5;;;16.0;;
67429;SDS011;54298;52.076;5.264;2023-03-01T01:33:17;17.91;;;13.9;;
67429;SDS011;54298;52.076;5.264;2023-03-01T01:36:30;18.8;;;12.6;;
67429;SDS011;54298;52.076;5.264;2023-03-01T01:38:09;18.2;;;13.5;;
67429;SDS011;54298;52.076;5.264;2023-03-01T01:39:45;21.4;;;15.7;;
67429;SDS011;54298;52.076;5.264;2023-03-01T01:41:22;19.7;;;13.7;;
67429;SDS011;54298;52.076;5.264;2023-03-01T01:44:35;20.41;;;15.0;;
67429;SDS011;54298;52.076;5.264;2023-03-01T01:46:15;20.7;;;14.9;;
67429;SDS011;54298;52.076;5.264;2023-03-01T01:47:57;16.3;;;13.0;;
67429;SDS011;54298;52.076;5.264;2023-03-01T01:51:21;16.8;;;11.3;;
67429;SDS011;54298;52.076;5.264;2023-03-01T01:53:01;21.1;;;14.3;;
67429;SDS011;54298;52.076;5.264;2023-03-01T01:54:39;19.8;;;15.5;;
67429;SDS011;54298;52.076;5.264;2023-03-01T01:56:21;15.9;;;12.4;;
67429;SDS011;54298;52.076;5.264;2023-03-01T01:59:43;21.0;;;13.5;;
67429;SDS011;54298;52.076;5.264;2023-03-01T02:01:25;22.0;;;14.1;;
67429;SDS011;54298;52.076;5.264;2023-03-01T02:03:03;22.1;;;15.6;;
67429;SDS011;54298;52.076;5.264;2023-03-01T02:04:44;21.0;;;14.6;;
67429;SDS011;54298;52.076;5.264;2023-03-01T02:08:05;14.8;;;11.2;;
67429;SDS011;54298;52.076;5.264;2023-03-01T02:09:45;16.7;;;13.0;;
67429;SDS011;54298;52.076;5.264;2023-03-01T02:11:24;18.0;;;14.4;;
67429;SDS011;54298;52.076;5.264;2023-03-01T02:13:02;21.5;;;14.9;;
67429;SDS011;54298;52.076;5.264;2023-03-01T02:16:16;20.6;;;15.4;;
67429;SDS011;54298;52.076;5.264;2023-03-01T02:17:53;22.3;;;15.1;;
67429;SDS011;54298;52.076;5.264;2023-03-01T02:19:35;19.91;;;15.1;;
67429;SDS011;54298;52.076;5.264;2023-03-01T02:21:37;15.0;;;11.5;;
67429;SDS011;54298;52.076;5.264;2023-03-01T02:23:24;22.5;;;15.4;;
67429;SDS011;54298;52.076;5.264;2023-03-01T02:26:51;18.41;;;12.6;;
67429;SDS011;54298;52.076;5.264;2023-03-01T02:28:31;19.8;;;14.9;;
67429;SDS011;54298;52.076;5.264;2023-03-01T02:30:09;20.11;;;14.6;;
67429;SDS011;54298;52.076;5.264;2023-03-01T02:31:46;14.0;;;11.6;;
67429;SDS011;54298;52.076;5.264;2023-03-01T02:35:01;19.11;;;14.4;;
67429;SDS011;54298;52.076;5.264;2023-03-01T02:36:39;18.2;;;14.0;;
67429;SDS011;54298;52.076;5.264;2023-03-01T02:38:18;19.8;;;14.8;;
67429;SDS011;54298;52.076;5.264;2023-03-01T02:39:56;20.7;;;15.2;;
67429;SDS011;54298;52.076;5.264;2023-03-01T02:43:17;20.9;;;15.5;;
67429;SDS011;54298;52.076;5.264;2023-03-01T02:44:58;21.7;;;16.0;;
67429;SDS011;54298;52.076;5.264;2023-03-01T02:46:34;25.0;;;16.7;;
67429;SDS011;54298;52.076;5.264;2023-03-01T02:48:18;23.6;;;17.5;;
67429;SDS011;54298;52.076;5.264;2023-03-01T02:51:35;23.6;;;17.5;;
67429;SDS011;54298;52.076;5.264;2023-03-01T02:53:25;21.8;;;17.0;;
67429;SDS011;54298;52.076;5.264;2023-03-01T02:55:10;24.9;;;18.11;;
67429;SDS011;54298;52.076;5.264;2023-03-01T02:56:49;25.7;;;18.8;;
67429;SDS011;54298;52.076;5.264;2023-03-01T03:00:04;17.8;;;14.6;;
67429;SDS011;54298;52.076;5.264;2023-03-01T03:01:44;20.3;;;15.0;;
67429;SDS011;54298;52.076;5.264;2023-03-01T03:03:20;24.9;;;16.7;;
67429;SDS011;54298;52.076;5.264;2023-03-01T03:06:33;21.9;;;16.8;;
67429;SDS011;54298;52.076;5.264;2023-03-01T03:08:09;20.11;;;14.2;;
67429;SDS011;54298;52.076;5.264;2023-03-01T03:09:46;23.0;;;18.0;;
67429;SDS011;54298;52.076;5.264;2023-03-01T03:11:22;23.9;;;17.91;;
67429;SDS011;54298;52.076;5.264;2023-03-01T03:14:37;23.6;;;17.61;;
67429;SDS011;54298;52.076;5.264;2023-03-01T03:16:13;27.6;;;20.11;;
67429;SDS011;54298;52.076;5.264;2023-03-01T03:17:50;25.2;;;19.11;;
67429;SDS011;54298;52.076;5.264;2023-03-01T03:21:06;29.4;;;21.0;;
67429;SDS011;54298;52.076;5.264;2023-03-01T03:22:43;26.9;;;20.5;;
67429;SDS011;54298;52.076;5.264;2023-03-01T03:24:19;24.9;;;18.8;;
67429;SDS011;54298;52.076;5.264;2023-03-01T03:25:55;25.0;;;18.0;;
67429;SDS011;54298;52.076;5.264;2023-03-01T03:29:08;25.9;;;18.7;;
67429;SDS011;54298;52.076;5.264;2023-03-01T03:30:44;25.5;;;18.11;;
67429;SDS011;54298;52.076;5.264;2023-03-01T03:32:20;25.5;;;20.7;;
67429;SDS011;54298;52.076;5.264;2023-03-01T03:35:33;29.2;;;20.5;;
67429;SDS011;54298;52.076;5.264;2023-03-01T03:37:15;27.6;;;22.1;;
67429;SDS011;54298;52.076;5.264;2023-03-01T03:38:52;29.9;;;23.0;;
67429;SDS011;54298;52.076;5.264;2023-03-01T03:42:08;28.9;;;21.2;;
67429;SDS011;54298;52.076;5.264;2023-03-01T03:43:44;29.1;;;23.3;;
67429;SDS011;54298;52.076;5.264;2023-03-01T03:45:20;28.4;;;22.7;;
67429;SDS011;54298;52.076;5.264;2023-03-01T03:46:56;24.7;;;19.41;;
67429;SDS011;54298;52.076;5.264;2023-03-01T03:50:10;21.0;;;16.61;;
67429;SDS011;54298;52.076;5.264;2023-03-01T03:51:47;23.2;;;17.3;;
67429;SDS011;54298;52.076;5.264;2023-03-01T03:53:25;21.8;;;16.2;;
67429;SDS011;54298;52.076;5.264;2023-03-01T03:56:40;22.5;;;17.11;;
67429;SDS011;54298;52.076;5.264;2023-03-01T03:58:16;22.1;;;17.61;;
67429;SDS011;54298;52.076;5.264;2023-03-01T03:59:54;23.3;;;18.11;;
67429;SDS011;54298;52.076;5.264;2023-03-01T04:01:30;25.5;;;18.3;;
67429;SDS011;54298;52.076;5.264;2023-03-01T04:04:45;27.1;;;18.3;;
67429;SDS011;54298;52.076;5.264;2023-03-01T04:06:21;22.2;;;18.41;;
67429;SDS011;54298;52.076;5.264;2023-03-01T04:07:58;19.61;;;15.4;;
67429;SDS011;54298;52.076;5.264;2023-03-01T04:11:11;17.8;;;14.3;;
67429;SDS011;54298;52.076;5.264;2023-03-01T04:12:48;19.3;;;15.5;;
67429;SDS011;54298;52.076;5.264;2023-03-01T04:14:24;18.11;;;13.3;;
67429;SDS011;54298;52.076;5.264;2023-03-01T04:17:37;18.5;;;13.8;;
67429;SDS011;54298;52.076;5.264;2023-03-01T04:19:13;25.4;;;17.2;;
67429;SDS011;54298;52.076;5.264;2023-03-01T04:20:49;24.3;;;18.61;;
67429;SDS011;54298;52.076;5.264;2023-03-01T04:22:26;25.4;;;18.61;;
67429;SDS011;54298;52.076;5.264;2023-03-01T04:25:40;26.2;;;20.8;;
67429;SDS011;54298;52.076;5.264;2023-03-01T04:27:17;25.7;;;19.7;;
67429;SDS011;54298;52.076;5.264;2023-03-01T04:28:53;25.8;;;20.2;;
67429;SDS011;54298;52.076;5.264;2023-03-01T04:32:06;25.6;;;17.91;;
67429;SDS011;54298;52.076;5.264;2023-03-01T04:33:42;28.4;;;20.2;;
67429;SDS011;54298;52.076;5.264;2023-03-01T04:35:20;21.2;;;16.7;;
67429;SDS011;54298;52.076;5.264;2023-03-01T04:38:32;22.5;;;16.7;;
67429;SDS011;54298;52.076;5.264;2023-03-01T04:40:09;21.1;;;17.61;;
67429;SDS011;54298;52.076;5.264;2023-03-01T04:41:46;23.5;;;16.9;;
67429;SDS011;54298;52.076;5.264;2023-03-01T04:43:23;22.5;;;17.91;;
67429;SDS011;54298;52.076;5.264;2023-03-01T04:46:35;22.6;;;16.9;;
67429;SDS011;54298;52.076;5.264;2023-03-01T04:48:12;24.9;;;19.2;;
67429;SDS011;54298;52.076;5.264;2023-03-01T04:49:48;24.5;;;18.61;;
67429;SDS011;54298;52.076;5.264;2023-03-01T04:53:01;25.3;;;18.8;;
67429;SDS011;54298;52.076;5.264;2023-03-01T04:54:38;26.5;;;18.41;;
67429;SDS011;54298;52.076;5.264;2023-03-01T04:56:14;19.2;;;14.8;;
67429;SDS011;54298;52.076;5.264;2023-03-01T04:59:29;19.3;;;14.8;;
67429;SDS011;54298;52.076;5.264;2023-03-01T05:01:08;20.2;;;16.0;;
67429;SDS011;54298;52.076;5.264;2023-03-01T05:02:47;23.3;;;17.0;;
67429;SDS011;54298;52.076;5.264;2023-03-01T05:04:24;20.2;;;14.8;;
67429;SDS011;54298;52.076;5.264;2023-03-01T05:07:36;21.8;;;16.7;;
67429;SDS011;54298;52.076;5.264;2023-03-01T05:09:12;27.0;;;20.9;;
67429;SDS011;54298;52.076;5.264;2023-03-01T05:10:49;29.5;;;21.8;;
67429;SDS011;54298;52.076;5.264;2023-03-01T05:14:04;28.3;;;22.0;;
67429;SDS011;54298;52.076;5.264;2023-03-01T05:15:42;26.7;;;19.61;;
67429;SDS011;54298;52.076;5.264;2023-03-01T05:17:18;29.9;;;19.91;;
67429;SDS011;54298;52.076;5.264;2023-03-01T05:18:54;28.7;;;22.3;;
67429;SDS011;54298;52.076;5.264;2023-03-01T05:22:06;30.8;;;22.0;;
67429;SDS011;54298;52.076;5.264;2023-03-01T05:23:43;28.6;;;22.1;;
67429;SDS011;54298;52.076;5.264;2023-03-01T05:25:20;29.8;;;22.8;;
67429;SDS011;54298;52.076;5.264;2023-03-01T05:28:34;25.3;;;19.8;;
67429;SDS011;54298;52.076;5.264;2023-03-01T05:30:11;24.2;;;18.7;;
67429;SDS011;54298;52.076;5.264;2023-03-01T05:31:48;30.2;;;22.5;;
67429;SDS011;54298;52.076;5.264;2023-03-01T05:35:03;31.2;;;20.5;;
67429;SDS011;54298;52.076;5.264;2023-03-01T05:36:40;29.2;;;22.6;;
67429;SDS011;54298;52.076;5.264;2023-03-01T05:38:16;31.5;;;23.1;;
67429;SDS011;54298;52.076;5.264;2023-03-01T05:39:52;29.7;;;22.4;;
67429;SDS011;54298;52.076;5.264;2023-03-01T05:43:04;29.9;;;20.8;;
67429;SDS011;54298;52.076;5.264;2023-03-01T05:44:41;25.5;;;18.2;;
67429;SDS011;54298;52.076;5.264;2023-03-01T05:46:18;30.9;;;24.0;;
67429;SDS011;54298;52.076;5.264;2023-03-01T05:49:31;30.9;;;24.0;;
67429;SDS011;54298;52.076;5.264;2023-03-01T05:51:07;22.5;;;18.2;;
67429;SDS011;54298;52.076;5.264;2023-03-01T05:52:43;20.7;;;16.3;;
67429;SDS011;54298;52.076;5.264;2023-03-01T05:55:58;25.7;;;18.7;;
67429;SDS011;54298;52.076;5.264;2023-03-01T05:57:35;24.8;;;17.61;;
67429;SDS011;54298;52.076;5.264;2023-03-01T05:59:11;22.7;;;17.2;;
67429;SDS011;54298;52.076;5.264;2023-03-01T06:00:47;24.3;;;18.0;;
67429;SDS011;54298;52.076;5.264;2023-03-01T06:04:00;24.4;;;19.7;;
67429;SDS011;54298;52.076;5.264;2023-03-01T06:05:37;29.6;;;21.4;;
67429;SDS011;54298;52.076;5.264;2023-03-01T06:07:15;26.5;;;20.6;;
67429;SDS011;54298;52.076;5.264;2023-03-01T06:10:28;29.0;;;20.8;;
67429;SDS011;54298;52.076;5.264;2023-03-01T06:12:05;27.6;;;21.3;;
67429;SDS011;54298;52.076;5.264;2023-03-01T06:13:42;26.9;;;20.7;;
67429;SDS011;54298;52.076;5.264;2023-03-01T06:16:57;29.4;;;21.6;;
67429;SDS011;54298;52.076;5.264;2023-03-01T06:18:34;30.6;;;21.8;;
67429;SDS011;54298;52.076;5.264;2023-03-01T06:20:12;29.3;;;21.6;;
67429;SDS011;54298;52.076;5.264;2023-03-01T06:25:02;29.7;;;20.7;;
67429;SDS011;54298;52.076;5.264;2023-03-01T06:26:40;25.0;;;18.3;;
67429;SDS011;54298;52.076;5.264;2023-03-01T06:28:16;24.4;;;17.8;;
67429;SDS011;54298;52.076;5.264;2023-03-01T06:31:29;23.8;;;17.5;;
67429;SDS011;54298;52.076;5.264;2023-03-01T06:33:05;26.0;;;19.2;;
67429;SDS011;54298;52.076;5.264;2023-03-01T06:34:41;28.1;;;21.4;;
67429;SDS011;54298;52.076;5.264;2023-03-01T06:36:17;30.5;;;23.7;;
67429;SDS011;54298;52.076;5.264;2023-03-01T06:39:29;27.3;;;21.9;;
67429;SDS011;54298;52.076;5.264;2023-03-01T06:41:06;28.0;;;21.7;;
67429;SDS011;54298;52.076;5.264;2023-03-01T06:42:43;32.4;;;21.4;;
67429;SDS011;54298;52.076;5.264;2023-03-01T06:46:03;30.3;;;21.8;;
67429;SDS011;54298;52.076;5.264;2023-03-01T06:47:40;28.4;;;21.4;;
67429;SDS011;54298;52.076;5.264;2023-03-01T06:49:16;27.4;;;20.5;;
67429;SDS011;54298;52.076;5.264;2023-03-01T06:52:29;29.9;;;22.9;;
67429;SDS011;54298;52.076;5.264;2023-03-01T06:54:07;31.5;;;21.9;;
67429;SDS011;54298;52.076;5.264;2023-03-01T06:55:43;28.3;;;20.9;;
67429;SDS011;54298;52.076;5.264;2023-03-01T06:57:19;24.8;;;19.11;;
67429;SDS011;54298;52.076;5.264;2023-03-01T07:00:31;29.5;;;19.8;;
67429;SDS011;54298;52.076;5.264;2023-03-01T07:02:09;31.2;;;22.3;;
67429;SDS011;54298;52.076;5.264;2023-03-01T07:03:46;28.3;;;20.6;;
67429;SDS011;54298;52.076;5.264;2023-03-01T07:06:59;32.1;;;21.8;;
67429;SDS011;54298;52.076;5.264;2023-03-01T07:08:35;28.1;;;19.91;;
67429;SDS011;54298;52.076;5.264;2023-03-01T07:10:11;29.8;;;23.4;;
67429;SDS011;54298;52.076;5.264;2023-03-01T07:13:25;33.71;;;23.3;;
67429;SDS011;54298;52.076;5.264;2023-03-01T07:15:02;32.6;;;24.4;;
67429;SDS011;54298;52.076;5.264;2023-03-01T07:16:40;28.6;;;20.8;;
67429;SDS011;54298;52.076;5.264;2023-03-01T07:18:16;28.9;;;20.7;;
67429;SDS011;54298;52.076;5.264;2023-03-01T07:21:29;30.2;;;22.0;;
67429;SDS011;54298;52.076;5.264;2023-03-01T07:23:05;24.5;;;18.3;;
67429;SDS011;54298;52.076;5.264;2023-03-01T07:24:43;30.2;;;21.1;;
67429;SDS011;54298;52.076;5.264;2023-03-01T07:27:55;28.1;;;20.9;;
67429;SDS011;54298;52.076;5.264;2023-03-01T07:29:31;29.5;;;22.5;;
67429;SDS011;54298;52.076;5.264;2023-03-01T07:31:07;29.9;;;20.8;;
67429;SDS011;54298;52.076;5.264;2023-03-01T07:34:20;28.6;;;20.8;;
67429;SDS011;54298;52.076;5.264;2023-03-01T07:35:56;29.3;;;20.11;;
67429;SDS011;54298;52.076;5.264;2023-03-01T07:37:33;26.9;;;20.6;;
67429;SDS011;54298;52.076;5.264;2023-03-01T07:39:09;27.4;;;20.41;;
67429;SDS011;54298;52.076;5.264;2023-03-01T07:42:22;29.9;;;21.4;;
67429;SDS011;54298;52.076;5.264;2023-03-01T07:43:58;30.7;;;21.4;;
67429;SDS011;54298;52.076;5.264;2023-03-01T07:45:35;31.9;;;23.1;;
67429;SDS011;54298;52.076;5.264;2023-03-01T07:48:47;31.8;;;21.5;;
67429;SDS011;54298;52.076;5.264;2023-03-01T07:50:23;28.6;;;20.7;;
67429;SDS011;54298;52.076;5.264;2023-03-01T07:51:59;29.4;;;23.6;;
67429;SDS011;54298;52.076;5.264;2023-03-01T07:55:13;27.7;;;19.7;;
67429;SDS011;54298;52.076;5.264;2023-03-01T07:56:50;24.7;;;19.3;;
67429;SDS011;54298;52.076;5.264;2023-03-01T07:58:26;27.9;;;19.5;;
67429;SDS011;54298;52.076;5.264;2023-03-01T08:00:03;24.9;;;18.61;;
67429;SDS011;54298;52.076;5.264;2023-03-01T08:03:16;29.4;;;20.5;;
67429;SDS011;54298;52.076;5.264;2023-03-01T08:04:53;31.3;;;23.0;;
67429;SDS011;54298;52.076;5.264;2023-03-01T08:06:29;26.8;;;21.1;;
67429;SDS011;54298;52.076;5.264;2023-03-01T08:09:41;28.9;;;21.8;;
67429;SDS011;54298;52.076;5.264;2023-03-01T08:11:17;28.7;;;19.8;;
67429;SDS011;54298;52.076;5.264;2023-03-01T08:12:54;24.2;;;18.7;;
67429;SDS011;54298;52.076;5.264;2023-03-01T08:16:07;26.3;;;19.0;;
67429;SDS011;54298;52.076;5.264;2023-03-01T08:17:45;21.8;;;17.41;;
67429;SDS011;54298;52.076;5.264;2023-03-01T08:19:25;21.7;;;16.5;;
67429;SDS011;54298;52.076;5.264;2023-03-01T08:21:02;21.9;;;16.61;;
67429;SDS011;54298;52.076;5.264;2023-03-01T08:24:16;22.5;;;16.9;;
67429;SDS011;54298;52.076;5.264;2023-03-01T08:25:52;21.0;;;16.0;;
67429;SDS011;54298;52.076;5.264;2023-03-01T08:27:28;20.7;;;16.8;;
67429;SDS011;54298;52.076;5.264;2023-03-01T08:30:40;20.7;;;15.0;;
67429;SDS011;54298;52.076;5.264;2023-03-01T08:32:17;20.5;;;16.0;;
67429;SDS011;54298;52.076;5.264;2023-03-01T08:33:54;17.7;;;14.1;;
67429;SDS011;54298;52.076;5.264;2023-03-01T08:35:33;17.91;;;14.8;;
67429;SDS011;54298;52.076;5.264;2023-03-01T08:38:45;19.7;;;15.1;;
67429;SDS011;54298;52.076;5.264;2023-03-01T08:40:21;24.1;;;16.7;;
67429;SDS011;54298;52.076;5.264;2023-03-01T08:41:58;24.5;;;18.2;;
67429;SDS011;54298;52.076;5.264;2023-03-01T08:45:10;19.61;;;12.7;;
67429;SDS011;54298;52.076;5.264;2023-03-01T08:48:23;20.3;;;15.6;;
67429;SDS011;54298;52.076;5.264;2023-03-01T08:51:38;16.9;;;12.3;;
67429;SDS011;54298;52.076;5.264;2023-03-01T08:53:15;18.2;;;14.0;;
67429;SDS011;54298;52.076;5.264;2023-03-01T08:54:51;17.3;;;12.9;;
67429;SDS011;54298;52.076;5.264;2023-03-01T08:56:27;15.4;;;11.5;;
67429;SDS011;54298;52.076;5.264;2023-03-01T08:59:39;15.0;;;11.5;;
67429;SDS011;54298;52.076;5.264;2023-03-01T09:01:16;13.7;;;11.2;;
67429;SDS011;54298;52.076;5.264;2023-03-01T09:02:55;15.6;;;12.5;;
67429;SDS011;54298;52.076;5.264;2023-03-01T09:06:07;13.5;;;9.9;;
67429;SDS011;54298;52.076;5.264;2023-03-01T09:07:44;14.3;;;11.1;;
67429;SDS011;54298;52.076;5.264;2023-03-01T09:09:20;14.2;;;9.9;;
67429;SDS011;54298;52.076;5.264;2023-03-01T09:12:32;17.2;;;10.21;;
67429;SDS011;54298;52.076;5.264;2023-03-01T09:14:09;15.1;;;9.9;;
67429;SDS011;54298;52.076;5.264;2023-03-01T09:15:45;16.11;;;11.7;;
67429;SDS011;54298;52.076;5.264;2023-03-01T09:17:21;13.7;;;9.71;;
67429;SDS011;54298;52.076;5.264;2023-03-01T09:20:33;12.4;;;9.1;;
67429;SDS011;54298;52.076;5.264;2023-03-01T09:22:09;15.2;;;9.81;;
67429;SDS011;54298;52.076;5.264;2023-03-01T09:23:46;12.1;;;8.9;;
67429;SDS011;54298;52.076;5.264;2023-03-01T09:27:00;12.8;;;9.4;;
67429;SDS011;54298;52.076;5.264;2023-03-01T09:28:36;10.1;;;7.9;;
67429;SDS011;54298;52.076;5.264;2023-03-01T09:30:13;10.0;;;7.9;;
67429;SDS011;54298;52.076;5.264;2023-03-01T09:33:26;9.9;;;7.5;;
67429;SDS011;54298;52.076;5.264;2023-03-01T09:35:03;10.0;;;7.3;;
67429;SDS011;54298;52.076;5.264;2023-03-01T09:36:40;9.81;;;7.0;;
67429;SDS011;54298;52.076;5.264;2023-03-01T09:38:16;8.4;;;5.9;;
67429;SDS011;54298;52.076;5.264;2023-03-01T09:41:45;9.1;;;6.0;;
67429;SDS011;54298;52.076;5.264;2023-03-01T09:43:34;11.9;;;7.6;;
67429;SDS011;54298;52.076;5.264;2023-03-01T09:45:26;8.6;;;5.11;;
67429;SDS011;54298;52.076;5.264;2023-03-01T09:47:09;11.5;;;6.5;;
67429;SDS011;54298;52.076;5.264;2023-03-01T09:48:55;9.21;;;5.7;;
67429;SDS011;54298;52.076;5.264;2023-03-01T09:52:19;18.2;;;11.6;;
67429;SDS011;54298;52.076;5.264;2023-03-01T09:54:05;10.9;;;7.0;;
67429;SDS011;54298;52.076;5.264;2023-03-01T09:55:43;13.1;;;9.21;;
67429;SDS011;54298;52.076;5.264;2023-03-01T09:57:25;15.9;;;10.3;;
67429;SDS011;54298;52.076;5.264;2023-03-01T10:00:59;11.9;;;8.6;;
67429;SDS011;54298;52.076;5.264;2023-03-01T10:02:46;9.5;;;5.6;;
67429;SDS011;54298;52.076;5.264;2023-03-01T10:04:28;7.4;;;5.3;;
67429;SDS011;54298;52.076;5.264;2023-03-01T10:06:19;10.21;;;7.0;;
67429;SDS011;54298;52.076;5.264;2023-03-01T10:08:01;25.1;;;14.6;;
67429;SDS011;54298;52.076;5.264;2023-03-01T10:10:01;10.6;;;7.1;;
67429;SDS011;54298;52.076;5.264;2023-03-01T10:13:21;8.2;;;5.3;;
67429;SDS011;54298;52.076;5.264;2023-03-01T10:15:06;8.2;;;5.11;;
67429;SDS011;54298;52.076;5.264;2023-03-01T10:16:48;11.1;;;5.6;;
67429;SDS011;54298;52.076;5.264;2023-03-01T10:18:29;7.0;;;5.11;;
67429;SDS011;54298;52.076;5.264;2023-03-01T10:20:13;7.9;;;5.3;;
67429;SDS011;54298;52.076;5.264;2023-03-01T10:23:45;9.0;;;6.3;;
67429;SDS011;54298;52.076;5.264;2023-03-01T10:25:31;12.8;;;6.4;;
67429;SDS011;54298;52.076;5.264;2023-03-01T10:27:22;12.1;;;7.0;;
67429;SDS011;54298;52.076;5.264;2023-03-01T10:29:01;14.4;;;9.4;;
67429;SDS011;54298;52.076;5.264;2023-03-01T10:30:40;12.7;;;6.2;;
67429;SDS011;54298;52.076;5.264;2023-03-01T10:33:54;7.7;;;5.2;;
67429;SDS011;54298;52.076;5.264;2023-03-01T10:35:32;6.5;;;4.91;;
67429;SDS011;54298;52.076;5.264;2023-03-01T10:37:11;8.5;;;5.6;;
67429;SDS011;54298;52.076;5.264;2023-03-01T10:40:27;9.1;;;5.9;;
67429;SDS011;54298;52.076;5.264;2023-03-01T10:42:05;11.6;;;7.0;;
67429;SDS011;54298;52.076;5.264;2023-03-01T10:43:54;15.1;;;9.71;;
67429;SDS011;54298;52.076;5.264;2023-03-01T10:45:33;10.5;;;6.1;;
67429;SDS011;54298;52.076;5.264;2023-03-01T10:49:25;14.7;;;9.31;;
67429;SDS011;54298;52.076;5.264;2023-03-01T10:51:05;6.4;;;4.2;;
67429;SDS011;54298;52.076;5.264;2023-03-01T10:52:42;8.4;;;5.6;;
67429;SDS011;54298;52.076;5.264;2023-03-01T10:54:33;9.1;;;5.11;;
67429;SDS011;54298;52.076;5.264;2023-03-01T10:56:10;8.2;;;6.0;;
67429;SDS011;54298;52.076;5.264;2023-03-01T10:57:48;7.8;;;5.7;;
67429;SDS011;54298;52.076;5.264;2023-03-01T11:01:23;7.8;;;5.2;;
67429;SDS011;54298;52.076;5.264;2023-03-01T11:03:09;9.0;;;6.2;;
67429;SDS011;54298;52.076;5.264;2023-03-01T11:04:56;8.9;;;5.3;;
67429;SDS011;54298;52.076;5.264;2023-03-01T11:06:57;9.1;;;5.5;;
67429;SDS011;54298;52.076;5.264;2023-03-01T11:08:37;7.6;;;4.7;;
67429;SDS011;54298;52.076;5.264;2023-03-01T11:11:57;7.5;;;5.11;;
67429;SDS011;54298;52.076;5.264;2023-03-01T11:13:36;8.71;;;5.11;;
67429;SDS011;54298;52.076;5.264;2023-03-01T11:15:24;7.5;;;5.0;;
67429;SDS011;54298;52.076;5.264;2023-03-01T11:17:04;9.9;;;5.8;;
67429;SDS011;54298;52.076;5.264;2023-03-01T11:18:55;8.1;;;5.11;;
67429;SDS011;54298;52.076;5.264;2023-03-01T11:22:12;7.8;;;5.2;;
67429;SDS011;54298;52.076;5.264;2023-03-01T11:23:53;7.2;;;4.91;;
67429;SDS011;54298;52.076;5.264;2023-03-01T11:25:30;6.9;;;4.61;;
67429;SDS011;54298;52.076;5.264;2023-03-01T11:27:15;9.4;;;5.0;;
67429;SDS011;54298;52.076;5.264;2023-03-01T11:30:44;6.5;;;4.5;;
67429;SDS011;54298;52.076;5.264;2023-03-01T11:32:28;6.5;;;4.5;;
67429;SDS011;54298;52.076;5.264;2023-03-01T11:34:23;6.5;;;4.1;;
67429;SDS011;54298;52.076;5.264;2023-03-01T11:36:26;8.1;;;4.2;;
67429;SDS011;54298;52.076;5.264;2023-03-01T11:38:12;6.2;;;4.5;;
67429;SDS011;54298;52.076;5.264;2023-03-01T11:39:58;7.1;;;4.1;;
67429;SDS011;54298;52.076;5.264;2023-03-01T11:41:42;7.5;;;4.1;;
67429;SDS011;54298;52.076;5.264;2023-03-01T11:45:10;5.2;;;3.7;;
67429;SDS011;54298;52.076;5.264;2023-03-01T11:46:51;5.4;;;3.7;;
67429;SDS011;54298;52.076;5.264;2023-03-01T11:49:16;8.2;;;3.8;;
67429;SDS011;54298;52.076;5.264;2023-03-01T11:52:17;6.6;;;3.8;;
67429;SDS011;54298;52.076;5.264;2023-03-01T11:56:03;5.5;;;3.7;;
67429;SDS011;54298;52.076;5.264;2023-03-01T11:57:58;7.8;;;4.0;;
67429;SDS011;54298;52.076;5.264;2023-03-01T12:00:06;6.0;;;3.8;;
67429;SDS011;54298;52.076;5.264;2023-03-01T12:02:02;6.4;;;4.1;;
67429;SDS011;54298;52.076;5.264;2023-03-01T12:05:02;9.1;;;4.2;;
67429;SDS011;54298;52.076;5.264;2023-03-01T12:07:56;6.7;;;3.5;;
67429;SDS011;54298;52.076;5.264;2023-03-01T12:09:47;6.8;;;3.8;;
67429;SDS011;54298;52.076;5.264;2023-03-01T12:11:39;6.7;;;3.5;;
67429;SDS011;54298;52.076;5.264;2023-03-01T12:13:43;7.0;;;3.6;;
67429;SDS011;54298;52.076;5.264;2023-03-01T12:15:44;7.1;;;3.7;;
67429;SDS011;54298;52.076;5.264;2023-03-01T12:17:54;7.6;;;4.2;;
67429;SDS011;54298;52.076;5.264;2023-03-01T12:19:53;6.3;;;4.0;;
67429;SDS011;54298;52.076;5.264;2023-03-01T12:21:53;5.9;;;3.8;;
67429;SDS011;54298;52.076;5.264;2023-03-01T12:24:04;7.4;;;3.8;;
67429;SDS011;54298;52.076;5.264;2023-03-01T12:26:57;7.4;;;3.8;;
67429;SDS011;54298;52.076;5.264;2023-03-01T12:28:54;6.4;;;4.0;;
67429;SDS011;54298;52.076;5.264;2023-03-01T12:31:04;13.0;;;5.5;;
67429;SDS011;54298;52.076;5.264;2023-03-01T12:33:50;8.31;;;4.3;;
67429;SDS011;54298;52.076;5.264;2023-03-01T12:35:36;21.3;;;11.5;;
67429;SDS011;54298;52.076;5.264;2023-03-01T12:37:29;7.0;;;4.7;;
67429;SDS011;54298;52.076;5.264;2023-03-01T12:39:23;8.31;;;5.11;;
67429;SDS011;54298;52.076;5.264;2023-03-01T12:41:33;7.3;;;4.5;;
67429;SDS011;54298;52.076;5.264;2023-03-01T12:43:47;7.9;;;4.5;;
67429;SDS011;54298;52.076;5.264;2023-03-01T12:45:43;6.5;;;4.7;;
67429;SDS011;54298;52.076;5.264;2023-03-01T12:47:39;6.0;;;4.5;;